Time;durP1;ratioP1;P1;durP2;ratioP2;P2;SDS_P1;SDS_P2;PMS_P1;PMS_P2;Temp;Humidity;BMP_temperature;BMP_pressure;BME280_temperature;BME280_humidity;BME280_pressure;Samples;Min_cycle;Max_cycle;Signal;HPM_P1;HPM_P2
2022/05/26 00:02:16;;;;;;;9.35;1.73;;;;;;;45.23;5.78;100556.53;5080776;28;20497;-61
2022/05/26 00:04:43;;;;;;;10.57;1.60;;;;;;;45.04;6.04;100545.44;5078538;28;20025;-62
2022/05/26 00:07:10;;;;;;;5.97;1.75;;;;;;;44.95;6.28;100542.78;5089917;28;20123;-62
2022/05/26 00:09:38;;;;;;;9.27;1.88;;;;;;;44.26;6.12;100538.91;5081274;28;20409;-61
2022/05/26 00:12:06;;;;;;;7.20;1.80;;;;;;;44.84;6.25;100539.75;5088839;28;20073;-61
2022/05/26 00:14:33;;;;;;;12.38;2.20;;;;;;;45.07;5.83;100541.56;5075666;28;20064;-61
2022/05/26 00:17:01;;;;;;;12.00;1.80;;;;;;;44.83;5.96;100530.38;5082901;28;20040;-62
2022/05/26 00:19:28;;;;;;;8.23;1.77;;;;;;;44.70;6.03;100530.00;5084173;28;20051;-63
2022/05/26 00:21:57;;;;;;;10.52;2.03;;;;;;;44.65;6.25;100532.81;5087952;28;20036;-61
2022/05/26 00:24:28;;;;;;;11.32;2.13;;;;;;;44.39;6.36;100530.72;5085448;28;20100;-61
2022/05/26 00:26:56;;;;;;;;;;;;;;;43.33;6.71;100537.88;5082696;28;20037;-63
2022/05/26 00:29:23;;;;;;;38.63;4.07;;;;;;;43.39;7.18;100533.00;5083500;28;19959;-63
2022/05/26 00:31:52;;;;;;;20.08;2.10;;;;;;;43.40;6.97;100532.50;5089338;28;20035;-63
2022/05/26 00:34:19;;;;;;;15.77;2.20;;;;;;;43.66;7.07;100528.97;5077595;28;20031;-63
2022/05/26 00:36:46;;;;;;;13.95;1.95;;;;;;;42.46;7.14;100523.03;5080509;28;20036;-62
2022/05/26 00:39:22;;;;;;;7.75;1.55;;;;;;;42.69;6.96;100522.19;5085353;28;20024;-63
2022/05/26 00:41:53;;;;;;;7.78;1.98;;;;;;;42.33;7.17;100526.16;5084394;28;20437;-62
2022/05/26 00:44:20;;;;;;;16.23;2.20;;;;;;;42.38;7.29;100525.50;5087982;28;20028;-63
2022/05/26 00:47:09;;;;;;;9.65;1.90;;;;;;;41.95;7.44;100524.06;5083729;28;20455;-63
2022/05/26 00:49:58;;;;;;;13.70;2.00;;;;;;;41.30;7.79;100532.22;5080687;28;20028;-62
2022/05/26 00:52:42;;;;;;;9.60;2.13;;;;;;;41.66;7.95;100524.75;5085553;28;20489;-63
2022/05/26 00:55:23;;;;;;;16.20;1.83;;;;;;;41.58;8.18;100524.28;5085827;28;20036;-63
2022/05/26 00:57:54;;;;;;;14.88;1.92;;;;;;;41.46;8.22;100522.44;5081777;28;20388;-63
2022/05/26 01:00:28;;;;;;;13.80;1.95;;;;;;;40.72;8.71;100521.88;5079614;28;20035;-63
2022/05/26 01:03:06;;;;;;;13.38;2.13;;;;;;;40.26;8.69;100521.13;5080484;28;20028;-63
2022/05/26 01:06:02;;;;;;;17.27;2.40;;;;;;;40.40;8.64;100529.06;5081921;28;20028;-63
2022/05/26 01:08:37;;;;;;;19.13;2.50;;;;;;;39.66;9.27;100513.09;5075777;28;20044;-64
2022/05/26 01:11:05;;;;;;;17.27;2.25;;;;;;;39.64;9.07;100512.78;5087599;28;20063;-63
2022/05/26 01:13:35;;;;;;;13.77;2.22;;;;;;;39.57;9.75;100515.94;5083162;28;20103;-63
2022/05/26 01:16:13;;;;;;;10.60;2.28;;;;;;;39.64;9.08;100518.47;5079805;28;20050;-63
2022/05/26 01:18:55;;;;;;;25.77;2.33;;;;;;;39.54;9.50;100520.53;5082083;28;20143;-62
2022/05/26 01:21:46;;;;;;;17.52;2.30;;;;;;;39.52;9.19;100525.91;5079952;28;20138;-63
2022/05/26 01:24:51;;;;;;;25.17;2.33;;;;;;;39.16;9.49;100523.69;5080943;28;20116;-62
2022/05/26 01:27:37;;;;;;;25.33;2.75;;;;;;;39.01;10.07;100539.69;5047923;28;20174;-63
2022/05/26 01:30:23;;;;;;;23.85;2.67;;;;;;;38.85;9.92;100537.06;5086982;28;20451;-62
2022/05/26 01:32:55;;;;;;;17.23;2.33;;;;;;;38.86;10.30;100545.13;5080105;28;20090;-62
2022/05/26 01:35:41;;;;;;;10.75;2.25;;;;;;;37.88;9.58;100534.00;5084076;28;20436;-62
2022/05/26 01:38:29;;;;;;;13.10;2.58;;;;;;;37.79;10.69;100548.91;5075258;28;20043;-62
2022/05/26 01:41:20;;;;;;;16.80;3.05;;;;;;;37.90;10.69;100545.72;5080347;28;20044;-62
2022/05/26 01:43:56;;;;;;;20.30;3.97;;;;;;;37.74;10.03;100546.66;5083911;28;20486;-63
2022/05/26 01:46:33;;;;;;;15.50;2.55;;;;;;;37.59;10.95;100544.72;5087709;28;20039;-62
2022/05/26 01:49:09;;;;;;;11.88;1.98;;;;;;;37.59;10.78;100550.38;5081282;28;20028;-62
2022/05/26 01:52:01;;;;;;;21.17;3.28;;;;;;;37.30;11.39;100539.94;5082291;28;20109;-62
2022/05/26 01:54:41;;;;;;;11.98;2.25;;;;;;;37.20;11.57;100558.06;5078749;28;20032;-61
2022/05/26 01:57:20;;;;;;;15.63;2.60;;;;;;;36.97;11.04;100556.31;5077665;28;20040;-62
2022/05/26 02:00:00;;;;;;;13.82;2.13;;;;;;;36.77;11.44;100558.50;5077002;28;20396;-61
2022/05/26 02:02:34;;;;;;;23.05;2.50;;;;;;;36.60;11.47;100557.78;5081119;28;20555;-62
2022/05/26 02:05:09;;;;;;;17.73;2.35;;;;;;;36.46;11.73;100561.81;5077932;28;20044;-62
2022/05/26 02:07:52;;;;;;;14.35;2.65;;;;;;;36.20;11.78;100562.91;5077686;28;20024;-60
2022/05/26 02:11:06;;;;;;;11.43;3.17;;;;;;;36.03;12.06;100567.78;5079430;28;20112;-61
2022/05/26 02:13:43;;;;;;;9.27;2.72;;;;;;;35.73;12.76;100569.72;5079346;28;20047;-61
2022/05/26 02:16:17;;;;;;;19.40;2.65;;;;;;;35.52;12.79;100573.03;5078712;28;20060;-60
2022/05/26 02:18:56;;;;;;;9.40;1.77;;;;;;;35.32;13.53;100577.94;5077399;28;20045;-61
2022/05/26 02:21:51;;;;;;;12.57;2.10;;;;;;;35.14;13.66;100573.47;5081289;28;20425;-61
2022/05/26 02:24:40;;;;;;;16.55;2.80;;;;;;;34.82;13.72;100571.28;5078630;28;20041;-61
2022/05/26 02:27:07;;;;;;;13.40;1.80;;;;;;;34.72;13.85;100574.34;5076958;28;20802;-62
2022/05/26 02:29:52;;;;;;;16.65;2.38;;;;;;;34.61;14.10;100574.53;5077562;28;20060;-62
2022/05/26 02:32:30;;;;;;;14.98;2.53;;;;;;;34.27;14.59;100580.41;5075648;28;20024;-61
2022/05/26 02:35:00;;;;;;;9.73;2.50;;;;;;;34.17;14.82;100587.84;5080475;28;20033;-61
2022/05/26 02:37:30;;;;;;;12.00;2.30;;;;;;;33.98;14.99;100579.31;5087655;28;20085;-61
2022/05/26 02:39:57;;;;;;;14.40;2.88;;;;;;;33.71;15.76;100588.56;5087187;28;20103;-61
2022/05/26 02:42:24;;;;;;;17.17;2.50;;;;;;;33.64;15.54;100591.50;5090411;28;20116;-61
2022/05/26 02:44:52;;;;;;;13.23;3.05;;;;;;;33.42;15.57;100593.84;5092052;28;20043;-61
2022/05/26 02:47:40;;;;;;;13.32;2.30;;;;;;;33.37;15.93;100587.88;5092350;28;20070;-61
2022/05/26 02:50:37;;;;;;;14.00;2.70;;;;;;;33.16;16.12;100601.00;5082952;28;20028;-61
2022/05/26 02:53:04;;;;;;;11.80;2.50;;;;;;;32.98;16.65;100603.25;5092822;28;20051;-62
2022/05/26 02:55:53;;;;;;;10.60;2.67;;;;;;;32.90;16.58;100607.38;5092168;28;20012;-62
2022/05/26 02:58:41;;;;;;;15.13;2.40;;;;;;;32.76;16.88;100606.28;5084629;28;20047;-62
2022/05/26 03:01:15;;;;;;;11.13;3.00;;;;;;;32.72;17.50;100602.72;5090663;28;20111;-62
2022/05/26 03:03:53;;;;;;;14.48;3.03;;;;;;;32.60;17.61;100614.50;5092517;28;20162;-62
2022/05/26 03:06:34;;;;;;;14.38;4.22;;;;;;;32.40;17.95;100619.94;5093236;28;20036;-62
2022/05/26 03:09:02;;;;;;;17.67;5.60;;;;;;;32.31;17.92;100621.63;5093098;28;20032;-62
2022/05/26 03:11:29;;;;;;;19.50;4.05;;;;;;;32.08;18.53;100620.19;5092252;28;20020;-62
2022/05/26 03:13:56;;;;;;;49.25;6.00;;;;;;;31.81;23.02;100628.44;5090637;28;20028;-62
2022/05/26 03:16:22;;;;;;;19.05;3.72;;;;;;;31.84;18.78;100627.59;5092439;28;20478;-62
2022/05/26 03:18:51;;;;;;;30.73;3.97;;;;;;;31.67;21.07;100633.31;5092742;28;20494;-62
2022/05/26 03:21:18;;;;;;;19.25;3.47;;;;;;;31.79;19.60;100630.88;5092431;28;20028;-62
2022/05/26 03:23:45;;;;;;;15.90;3.65;;;;;;;31.56;19.91;100634.16;5090137;28;20028;-61
2022/05/26 03:26:11;;;;;;;23.83;4.18;;;;;;;31.46;20.61;100629.44;5092444;28;20016;-62
2022/05/26 03:28:38;;;;;;;13.55;3.13;;;;;;;31.29;20.19;100630.31;5091185;28;20036;-62
2022/05/26 03:31:09;;;;;;;25.23;3.53;;;;;;;31.31;19.89;100633.50;5089042;28;20137;-62
2022/05/26 03:41:53;;;;;;;26.73;3.75;;;;;;;31.07;19.63;100640.81;5090936;28;20422;-61
2022/05/26 03:44:21;;;;;;;14.52;2.70;;;;;;;31.03;20.06;100644.81;5085562;28;20034;-62
2022/05/26 03:46:50;;;;;;;12.90;2.70;;;;;;;30.86;20.76;100640.84;5092439;28;20494;-60
2022/05/26 03:49:16;;;;;;;14.63;2.67;;;;;;;30.90;20.31;100648.09;5092558;28;20035;-61
2022/05/26 03:51:43;;;;;;;16.67;2.50;;;;;;;30.84;20.73;100646.88;5092574;28;20046;-61
2022/05/26 03:54:10;;;;;;;17.13;3.00;;;;;;;30.79;20.78;100650.09;5092090;28;20444;-61
2022/05/26 03:56:37;;;;;;;20.08;2.95;;;;;;;30.75;21.03;100663.34;5089026;28;20033;-61
2022/05/26 03:59:03;;;;;;;16.65;2.63;;;;;;;30.78;20.69;100659.72;5091840;28;20027;-63
2022/05/26 04:01:30;;;;;;;13.45;2.85;;;;;;;30.69;20.84;100673.38;5089377;28;20367;-61
2022/05/26 04:03:57;;;;;;;11.25;2.10;;;;;;;30.53;21.02;100673.78;5091661;28;20488;-62
2022/05/26 04:06:28;;;;;;;11.27;2.40;;;;;;;30.54;21.12;100668.97;5090144;28;20081;-60
2022/05/26 04:08:57;;;;;;;15.43;2.58;;;;;;;30.45;21.43;100665.75;5082249;28;20110;-61
2022/05/26 04:11:24;;;;;;;6.95;2.40;;;;;;;30.59;20.83;100680.56;5091560;28;20028;-61
2022/05/26 04:13:52;;;;;;;10.70;2.50;;;;;;;30.58;20.86;100683.78;5089209;28;20028;-61
2022/05/26 04:16:20;;;;;;;11.43;2.35;;;;;;;30.19;21.44;100679.00;5090500;28;20127;-62
2022/05/26 04:18:48;;;;;;;11.38;2.50;;;;;;;30.10;21.39;100688.97;5087896;28;20040;-61
2022/05/26 04:21:15;;;;;;;14.35;2.72;;;;;;;29.98;21.48;100690.13;5089272;28;20045;-61
2022/05/26 04:23:42;;;;;;;9.43;2.50;;;;;;;29.85;21.84;100691.72;5086482;28;20104;-61
2022/05/26 04:29:53;;;;;;;12.80;3.10;;;;;;;29.77;21.81;100699.28;5092525;28;20055;-61
2022/05/26 04:32:22;;;;;;;21.20;4.50;;;;;;;29.54;22.50;100704.41;5090296;28;20024;-61
2022/05/26 04:34:51;;;;;;;19.45;6.47;;;;;;;29.59;21.73;100701.22;5090300;28;20036;-61
2022/05/26 04:37:20;;;;;;;23.55;10.07;;;;;;;29.35;22.50;100708.31;5091429;28;20479;-61
2022/05/26 04:39:55;;;;;;;30.80;11.23;;;;;;;29.44;21.98;100719.94;5087409;28;20095;-62
2022/05/26 04:42:23;;;;;;;24.48;9.45;;;;;;;29.59;21.84;100718.03;5089811;28;20027;-62
2022/05/26 04:44:50;;;;;;;29.33;8.30;;;;;;;29.70;21.73;100716.09;5087337;28;20035;-61
2022/05/26 04:47:20;;;;;;;22.00;8.10;;;;;;;29.84;21.79;100721.75;5085619;28;20032;-61
2022/05/26 04:49:56;;;;;;;19.55;6.13;;;;;;;29.76;21.80;100715.28;5088244;28;20074;-61
2022/05/26 04:52:26;;;;;;;16.05;4.40;;;;;;;29.71;22.07;100726.09;5091012;28;20035;-61
2022/05/26 04:54:54;;;;;;;13.02;3.28;;;;;;;29.58;22.34;100734.03;5091212;28;20587;-60
2022/05/26 04:57:24;;;;;;;9.27;2.45;;;;;;;29.50;22.37;100735.22;5089201;28;20035;-60
2022/05/26 04:59:52;;;;;;;15.70;2.75;;;;;;;29.45;22.46;100736.41;5088476;28;20032;-61
2022/05/26 05:02:21;;;;;;;12.23;2.80;;;;;;;29.31;22.50;100738.28;5091700;28;20012;-62
2022/05/26 05:04:49;;;;;;;13.07;2.70;;;;;;;28.95;23.54;100742.88;5091019;28;20024;-61
2022/05/26 05:07:17;;;;;;;10.60;2.40;;;;;;;28.78;23.76;100742.31;5091431;28;20051;-61
2022/05/26 05:09:46;;;;;;;11.57;2.25;;;;;;;28.81;24.13;100744.34;5089396;28;20544;-61
2022/05/26 05:12:19;;;;;;;11.02;2.50;;;;;;;28.86;23.65;100746.00;5090148;28;20035;-61
2022/05/26 05:14:52;;;;;;;13.13;3.25;;;;;;;28.68;24.25;100750.63;5089271;28;20035;-61
2022/05/26 05:17:21;;;;;;;31.65;9.57;;;;;;;28.63;24.54;100751.00;5089972;28;20510;-61
2022/05/26 05:19:49;;;;;;;31.13;10.80;;;;;;;28.48;25.12;100750.06;5091163;28;20105;-61
2022/05/26 05:22:34;;;;;;;32.38;11.48;;;;;;;28.38;25.55;100759.97;5092595;28;20032;-61
2022/05/26 05:25:00;;;;;;;;;;;;;;;28.27;26.28;100762.66;5093591;28;20025;-61
2022/05/26 05:27:45;;;;;;;27.80;8.80;;;;;;;28.18;26.39;100761.31;5092356;28;19980;-61
2022/05/26 05:30:35;;;;;;;21.38;7.70;;;;;;;28.04;26.98;100758.38;5076902;28;20478;-61
2022/05/26 05:33:26;;;;;;;18.40;5.32;;;;;;;27.92;27.30;100763.03;5085617;28;20465;-61
2022/05/26 05:35:53;;;;;;;38.70;4.10;;;;;;;27.95;27.54;100770.66;5093605;28;20119;-61
2022/05/26 05:38:20;;;;;;;11.90;2.80;;;;;;;28.03;27.75;100765.16;5093898;28;20062;-61
2022/05/26 05:40:48;;;;;;;11.10;2.30;;;;;;;28.14;27.55;100761.28;5094889;28;20024;-61
2022/05/26 05:43:15;;;;;;;9.95;2.75;;;;;;;28.07;27.95;100771.59;5095270;28;20504;-62
2022/05/26 05:45:42;;;;;;;15.63;2.70;;;;;;;27.87;28.30;100757.81;5093591;28;20042;-62
2022/05/26 05:48:09;;;;;;;10.63;2.50;;;;;;;27.77;28.55;100758.47;5094097;28;20020;-62
2022/05/26 05:50:36;;;;;;;8.70;2.40;;;;;;;27.71;28.16;100760.00;5094649;28;20543;-62
2022/05/26 05:53:03;;;;;;;9.93;2.65;;;;;;;27.78;28.33;100760.06;5094293;28;20024;-61
2022/05/26 05:55:31;;;;;;;8.20;2.38;;;;;;;27.94;28.42;100763.47;5094972;28;20025;-62
2022/05/26 05:57:58;;;;;;;11.57;2.42;;;;;;;27.63;29.00;100758.28;5093266;28;20063;-62
2022/05/26 06:00:25;;;;;;;14.82;2.38;;;;;;;27.60;29.29;100762.63;5094936;28;20036;-62
2022/05/26 06:02:52;;;;;;;10.25;2.35;;;;;;;27.53;29.52;100768.13;5092542;28;20036;-61
2022/05/26 06:05:19;;;;;;;13.60;2.72;;;;;;;27.25;30.11;100762.94;5094552;28;20036;-62
2022/05/26 06:07:45;;;;;;;21.85;4.40;;;;;;;26.99;30.39;100760.94;5094516;28;20436;-62
2022/05/26 06:10:14;;;;;;;17.75;6.15;;;;;;;26.85;30.79;100762.69;5093175;28;20367;-62
2022/05/26 06:12:41;;;;;;;25.35;8.50;;;;;;;26.72;30.99;100767.66;5094388;28;20104;-61
2022/05/26 06:15:08;;;;;;;26.20;9.70;;;;;;;26.58;31.37;100759.88;5093764;28;20032;-62
2022/05/26 06:17:35;;;;;;;25.15;9.00;;;;;;;26.48;31.74;100760.50;5093803;28;20535;-63
2022/05/26 06:20:03;;;;;;;20.90;8.75;;;;;;;26.47;31.68;100776.41;5093794;28;20093;-61
2022/05/26 06:22:30;;;;;;;24.42;7.68;;;;;;;26.32;31.99;100770.94;5091247;28;20032;-62
2022/05/26 06:24:57;;;;;;;22.25;7.70;;;;;;;26.36;31.93;100763.47;5093887;28;20501;-61
2022/05/26 06:30:12;;;;;;;26.70;7.10;;;;;;;26.24;32.12;100761.66;5090835;28;20024;-62
2022/05/26 06:38:28;;;;;;;19.17;4.85;;;;;;;26.08;32.05;100767.31;5093435;28;20047;-61
2022/05/26 06:40:54;;;;;;;34.35;5.35;;;;;;;26.10;32.20;100759.38;5093729;28;20093;-62
2022/05/26 06:43:22;;;;;;;30.10;4.55;;;;;;;25.98;32.00;100765.13;5093296;28;20028;-62
2022/05/26 06:45:49;;;;;;;38.83;3.85;;;;;;;25.88;32.71;100762.94;5093391;28;20020;-62
2022/05/26 06:48:16;;;;;;;15.65;3.72;;;;;;;25.73;33.26;100761.03;5093355;28;20047;-62
2022/05/26 06:50:43;;;;;;;15.05;3.35;;;;;;;25.72;32.85;100756.66;5093309;28;20367;-63
2022/05/26 06:53:11;;;;;;;13.02;2.60;;;;;;;25.76;32.95;100763.09;5091578;28;20569;-61
2022/05/26 06:55:37;;;;;;;15.57;3.17;;;;;;;25.65;33.47;100762.00;5094145;28;20020;-62
2022/05/26 06:58:04;;;;;;;14.38;2.50;;;;;;;25.63;33.01;100756.81;5093963;28;20032;-62
2022/05/26 07:00:31;;;;;;;13.63;2.50;;;;;;;25.60;33.28;100761.13;5090644;28;20019;-61
2022/05/26 07:02:58;;;;;;;9.23;2.53;;;;;;;25.59;33.36;100751.19;5092674;28;20044;-61
2022/05/26 07:05:28;;;;;;;11.02;2.40;;;;;;;25.54;33.25;100759.03;5092863;28;20527;-61
2022/05/26 07:07:55;;;;;;;26.38;2.90;;;;;;;25.48;33.40;100754.91;5092723;28;20032;-61
2022/05/26 07:10:22;;;;;;;7.65;2.80;;;;;;;25.57;33.21;100756.31;5093149;28;20012;-62
2022/05/26 07:12:49;;;;;;;11.77;2.97;;;;;;;25.51;33.86;100749.44;5091871;28;20028;-62
2022/05/26 07:15:16;;;;;;;7.18;2.88;;;;;;;25.58;33.35;100751.56;5092858;28;20016;-62
2022/05/26 07:17:43;;;;;;;18.83;3.03;;;;;;;25.51;33.50;100741.09;5092615;28;20028;-61
2022/05/26 07:20:11;;;;;;;124.82;5.90;;;;;;;25.44;33.85;100745.69;5093179;28;20071;-62
2022/05/26 07:22:38;;;;;;;61.38;5.93;;;;;;;25.28;34.81;100751.28;5093649;28;20450;-62
2022/05/26 07:25:05;;;;;;;18.00;3.35;;;;;;;25.22;35.31;100739.66;5093317;28;20398;-61
2022/05/26 07:27:32;;;;;;;10.02;2.55;;;;;;;25.08;38.27;100742.09;5093641;28;20032;-61
2022/05/26 07:29:59;;;;;;;16.95;2.47;;;;;;;25.18;35.75;100754.66;5092191;28;20081;-61
2022/05/26 07:32:26;;;;;;;7.43;2.60;;;;;;;25.25;36.76;100747.25;5092898;28;20047;-61
2022/05/26 07:34:53;;;;;;;13.38;2.90;;;;;;;25.37;36.35;100748.31;5093385;28;20024;-62
2022/05/26 07:42:51;;;;;;;12.35;2.90;;;;;;;25.24;36.17;100739.28;5089488;28;19947;-62
2022/05/26 07:45:18;;;;;;;8.80;2.78;;;;;;;25.23;35.20;100741.25;5093952;28;20092;-62
2022/05/26 07:47:45;;;;;;;12.60;2.95;;;;;;;25.15;35.48;100733.13;5093831;28;20032;-62
2022/05/26 07:50:20;;;;;;;15.90;3.08;;;;;;;25.11;34.62;100735.00;5094103;28;20525;-61
2022/05/26 07:52:49;;;;;;;14.57;2.75;;;;;;;25.05;34.43;100734.50;5093810;28;20040;-61
2022/05/26 07:55:18;;;;;;;11.40;2.45;;;;;;;25.10;34.63;100728.63;5093895;28;20034;-61
2022/05/26 07:57:45;;;;;;;289.92;10.50;;;;;;;24.95;35.74;100733.03;5093644;28;20541;-61
2022/05/26 08:00:13;;;;;;;21.13;2.50;;;;;;;24.83;35.78;100727.59;5093835;28;20034;-61
2022/05/26 08:02:40;;;;;;;13.55;2.88;;;;;;;24.93;35.28;100732.59;5093394;28;20020;-61
2022/05/26 08:05:09;;;;;;;9.50;2.55;;;;;;;24.82;35.34;100726.00;5093868;28;20024;-61
2022/05/26 08:07:36;;;;;;;6.85;2.40;;;;;;;24.78;34.75;100725.09;5093514;28;20024;-61
2022/05/26 08:10:03;;;;;;;11.15;2.40;;;;;;;24.73;35.85;100728.13;5092233;28;20182;-61
2022/05/26 08:12:30;;;;;;;9.80;2.38;;;;;;;24.67;35.30;100713.72;5093481;28;20387;-61
2022/05/26 08:14:57;;;;;;;9.82;2.15;;;;;;;24.62;35.69;100732.66;5093388;28;20016;-61
2022/05/26 08:17:24;;;;;;;9.88;2.50;;;;;;;24.56;35.44;100725.72;5093547;28;20036;-61
2022/05/26 08:19:52;;;;;;;8.77;2.25;;;;;;;24.51;35.71;100724.03;5093055;28;20102;-61
2022/05/26 08:22:19;;;;;;;9.93;2.60;;;;;;;24.54;35.85;100730.84;5093396;28;20036;-61
2022/05/26 08:24:56;;;;;;;9.93;2.50;;;;;;;24.55;35.49;100732.47;5093363;28;20482;-61
2022/05/26 08:27:24;;;;;;;10.23;2.42;;;;;;;24.53;36.02;100720.91;5093411;28;20043;-61
2022/05/26 08:29:54;;;;;;;10.48;2.83;;;;;;;24.56;35.16;100714.63;5093420;28;20501;-61
2022/05/26 08:32:22;;;;;;;8.52;2.50;;;;;;;24.30;36.43;100720.72;5093427;28;20036;-61
2022/05/26 08:34:49;;;;;;;7.60;2.58;;;;;;;24.22;36.50;100718.88;5071998;28;20031;-61
2022/05/26 08:37:19;;;;;;;5.32;2.40;;;;;;;24.14;36.45;100717.91;5073075;28;20036;-61
2022/05/26 08:39:47;;;;;;;6.90;2.50;;;;;;;24.04;36.68;100710.06;5072972;28;20115;-60
2022/05/26 08:42:21;;;;;;;9.02;2.63;;;;;;;24.11;36.52;100718.63;5072881;28;20112;-60
2022/05/26 08:44:50;;;;;;;12.05;2.85;;;;;;;23.98;37.01;100711.50;5072990;28;20487;-60
2022/05/26 08:47:22;;;;;;;211.05;7.88;;;;;;;23.97;37.22;100707.13;5072863;28;20047;-60
2022/05/26 08:50:05;;;;;;;9.20;3.03;;;;;;;24.16;36.68;100710.00;5090709;28;20111;-60
2022/05/26 08:52:45;;;;;;;6.03;2.33;;;;;;;24.26;36.26;100703.94;5093113;28;20476;-60
2022/05/26 08:55:25;;;;;;;10.80;2.97;;;;;;;24.24;36.58;100708.25;5096299;28;20581;-60
2022/05/26 08:58:11;;;;;;;10.80;2.75;;;;;;;24.17;36.30;100696.94;5097050;28;20390;-60
2022/05/26 09:00:41;;;;;;;9.43;3.00;;;;;;;24.21;36.54;100711.72;5097064;28;20115;-60
2022/05/26 09:03:27;;;;;;;11.02;3.08;;;;;;;24.03;36.82;100705.69;5096903;28;20041;-61
2022/05/26 09:06:03;;;;;;;10.60;3.00;;;;;;;23.94;37.15;100707.84;5097253;28;20082;-61
2022/05/26 09:14:22;;;;;;;9.55;2.67;;;;;;;23.80;38.11;100714.59;5088451;28;20450;-61
2022/05/26 09:16:49;;;;;;;10.40;2.80;;;;;;;23.67;39.00;100704.72;5076427;28;20044;-61
2022/05/26 09:19:21;;;;;;;11.88;3.00;;;;;;;23.62;39.49;100716.06;5076187;28;20398;-61
2022/05/26 09:21:51;;;;;;;14.30;3.03;;;;;;;23.62;39.54;100710.53;5076442;28;20033;-61
2022/05/26 09:24:25;;;;;;;13.00;2.92;;;;;;;23.57;39.82;100705.25;5076363;28;20039;-61
2022/05/26 09:26:54;;;;;;;15.40;3.40;;;;;;;23.44;40.38;100706.41;5076486;28;20036;-61
2022/05/26 09:29:30;;;;;;;11.13;2.95;;;;;;;23.34;40.43;100707.72;5076404;28;20027;-60
2022/05/26 09:31:58;;;;;;;14.80;3.30;;;;;;;23.26;40.95;100702.31;5076426;28;20456;-60
2022/05/26 09:34:34;;;;;;;24.05;3.88;;;;;;;23.17;40.89;100708.81;5094931;28;20028;-61
2022/05/26 09:37:02;;;;;;;16.08;3.50;;;;;;;23.10;41.38;100707.75;5096405;28;20590;-60
2022/05/26 09:39:42;;;;;;;16.17;3.75;;;;;;;23.00;42.02;100697.97;5096043;28;20024;-60
2022/05/26 09:42:15;;;;;;;108.20;6.28;;;;;;;22.93;42.58;100700.50;5096355;28;20063;-61
2022/05/26 09:44:49;;;;;;;15.05;4.10;;;;;;;22.90;43.18;100701.22;5096201;28;20060;-61
2022/05/26 09:47:28;;;;;;;23.40;4.18;;;;;;;22.87;43.58;100694.41;5094864;28;20504;-61
2022/05/26 09:49:58;;;;;;;16.20;4.10;;;;;;;22.78;43.60;100695.66;5095884;28;20052;-61
2022/05/26 09:52:39;;;;;;;18.23;4.53;;;;;;;22.73;44.42;100701.44;5096099;28;20032;-61
2022/05/26 09:55:26;;;;;;;23.42;5.45;;;;;;;22.75;45.39;100701.88;5096036;28;20036;-61
2022/05/26 09:58:31;;;;;;;15.43;4.88;;;;;;;22.66;46.74;100704.78;5094714;28;20486;-61
2022/05/26 10:01:05;;;;;;;13.20;4.20;;;;;;;22.73;46.50;100712.50;5072219;28;20565;-61
2022/05/26 10:03:49;;;;;;;11.88;4.65;;;;;;;22.61;47.19;100711.34;5095791;28;20039;-61
2022/05/26 10:06:36;;;;;;;14.10;4.27;;;;;;;22.59;47.33;100708.13;5095333;28;20032;-61
2022/05/26 10:09:27;;;;;;;14.45;4.32;;;;;;;22.58;47.28;100714.81;5095861;28;20623;-60
2022/05/26 10:12:01;;;;;;;15.25;4.97;;;;;;;22.56;46.89;100711.59;5095815;28;20059;-60
2022/05/26 10:14:36;;;;;;;16.80;5.05;;;;;;;22.56;47.41;100717.13;5095687;28;20037;-60
2022/05/26 10:17:09;;;;;;;23.85;5.20;;;;;;;22.51;49.80;100720.13;5095558;28;20036;-61
2022/05/26 10:20:02;;;;;;;15.07;5.13;;;;;;;22.51;50.59;100720.13;5095507;28;20518;-61
2022/05/26 10:22:51;;;;;;;12.80;4.95;;;;;;;22.53;51.86;100714.25;5094440;28;20042;-61
2022/05/26 10:25:20;;;;;;;12.45;5.07;;;;;;;22.71;51.17;100729.47;5095452;28;20032;-61
2022/05/26 10:28:14;;;;;;;16.33;4.88;;;;;;;22.79;52.08;100724.97;5095512;28;20453;-61
2022/05/26 10:30:49;;;;;;;14.30;4.53;;;;;;;22.80;52.96;100732.13;5094234;28;20032;-61
2022/05/26 10:33:45;;;;;;;15.70;4.45;;;;;;;22.68;53.96;100738.50;5095072;28;20047;-61
2022/05/26 10:36:32;;;;;;;19.60;5.00;;;;;;;22.60;54.36;100740.19;5091348;28;20177;-61
2022/05/26 10:39:10;;;;;;;18.67;4.93;;;;;;;22.63;54.35;100740.69;5095221;28;20431;-61
2022/05/26 10:42:03;;;;;;;15.35;5.40;;;;;;;22.63;54.27;100737.91;5095273;28;20410;-60
2022/05/26 10:45:06;;;;;;;15.95;4.05;;;;;;;22.57;56.25;100746.44;5092224;28;20080;-61
2022/05/26 10:47:44;;;;;;;19.75;4.53;;;;;;;22.55;57.04;100753.47;5095081;28;20390;-61
2022/05/26 10:50:28;;;;;;;12.43;4.40;;;;;;;22.54;58.58;100747.13;5095099;28;20107;-61
2022/05/26 10:53:23;;;;;;;15.90;3.85;;;;;;;22.48;59.12;100742.97;5094976;28;20040;-61
2022/05/26 10:56:09;;;;;;;14.43;4.70;;;;;;;22.53;59.03;100758.56;5094873;28;20054;-61
2022/05/26 10:58:54;;;;;;;15.10;4.55;;;;;;;22.51;59.49;100753.38;5094601;28;20067;-60
2022/05/26 11:01:42;;;;;;;12.50;5.03;;;;;;;22.37;58.93;100763.16;5095047;28;20086;-61
2022/05/26 11:04:40;;;;;;;16.23;4.78;;;;;;;22.43;58.77;100764.53;5094576;28;20040;-61
2022/05/26 11:07:29;;;;;;;17.13;5.68;;;;;;;22.36;58.99;100773.41;5095074;28;20386;-61
2022/05/26 11:10:02;;;;;;;14.25;4.97;;;;;;;22.33;58.83;100776.88;5094693;28;20372;-61
2022/05/26 11:12:35;;;;;;;19.58;4.80;;;;;;;22.23;58.66;100782.84;5094557;28;20496;-61
2022/05/26 11:18:25;;;;;;;13.77;4.55;;;;;;;22.09;58.48;100779.59;5071779;28;20115;-61
2022/05/26 11:20:54;;;;;;;16.20;4.85;;;;;;;22.00;59.18;100782.38;5074140;28;20045;-61
2022/05/26 11:23:23;;;;;;;13.38;4.43;;;;;;;21.96;59.26;100779.50;5074110;28;20028;-61
2022/05/26 11:25:59;;;;;;;17.88;4.72;;;;;;;21.96;58.71;100784.22;5072868;28;20128;-61
2022/05/26 11:28:55;;;;;;;14.13;4.80;;;;;;;21.97;58.71;100789.41;5074306;28;20036;-61
2022/05/26 11:37:28;;;;;;;15.60;4.80;;;;;;;21.89;60.37;100803.31;5092069;28;20032;-61
2022/05/26 11:40:02;;;;;;;14.18;4.90;;;;;;;21.78;60.26;100802.13;5089893;28;20051;-61
2022/05/26 11:42:33;;;;;;;13.75;4.65;;;;;;;21.80;60.84;100795.09;5092458;28;20024;-61
2022/05/26 11:45:08;;;;;;;16.08;4.80;;;;;;;21.68;60.98;100806.91;5092451;28;20382;-61
2022/05/26 11:47:58;;;;;;;13.20;3.92;;;;;;;21.67;60.47;100807.25;5092849;28;20051;-61
2022/05/26 11:50:56;;;;;;;13.10;4.10;;;;;;;21.55;60.23;100808.00;5093951;28;20039;-60
2022/05/26 11:53:35;;;;;;;11.07;3.72;;;;;;;21.59;59.44;100811.72;5093919;28;20081;-61
2022/05/26 11:56:29;;;;;;;8.60;3.55;;;;;;;21.49;59.14;100819.56;5094066;28;20124;-61
2022/05/26 11:59:26;;;;;;;13.85;4.03;;;;;;;21.50;58.09;100829.50;5091043;28;20094;-60
2022/05/26 12:01:59;;;;;;;11.40;3.35;;;;;;;21.51;56.94;100829.16;5073743;28;20032;-61
2022/05/26 12:04:34;;;;;;;13.48;3.42;;;;;;;21.43;56.69;100841.09;5083836;28;20036;-61
2022/05/26 12:07:03;;;;;;;10.40;3.00;;;;;;;21.42;55.43;100833.94;5093847;28;20398;-61
2022/05/26 12:09:44;;;;;;;11.75;3.50;;;;;;;21.41;54.97;100840.63;5093602;28;20091;-61
2022/05/26 12:12:17;;;;;;;17.55;3.17;;;;;;;21.38;54.61;100847.63;5093722;28;20032;-61
2022/05/26 12:14:46;;;;;;;9.15;3.42;;;;;;;21.28;54.53;100839.72;5092336;28;20085;-61
2022/05/26 12:17:31;;;;;;;11.70;3.15;;;;;;;21.33;53.54;100842.28;5093436;28;20068;-62
2022/05/26 12:20:19;;;;;;;14.80;3.28;;;;;;;21.37;52.65;100840.50;5093134;28;20127;-62
2022/05/26 12:22:52;;;;;;;12.43;3.17;;;;;;;21.33;52.33;100850.56;5089761;28;20048;-62
2022/05/26 12:25:25;;;;;;;7.95;3.30;;;;;;;21.33;51.83;100852.53;5093471;28;20052;-62
2022/05/26 12:27:53;;;;;;;9.35;3.20;;;;;;;21.28;51.39;100856.31;5093351;28;20039;-61
2022/05/26 12:30:45;;;;;;;7.57;2.70;;;;;;;21.29;50.63;100855.16;5092150;28;20024;-61
2022/05/26 12:33:20;;;;;;;13.57;2.90;;;;;;;21.30;50.00;100856.78;5093164;28;20035;-61